sensor_id;sensor_type;location;lat;lon;timestamp;P1;durP1;ratioP1;P2;durP2;ratioP2
72920;SDS011;61064;51.654;5.476;2022-07-01T00:00:26;33.73;;;18.03;;
72920;SDS011;61064;51.654;5.476;2022-07-01T00:02:52;33.00;;;17.47;;
72920;SDS011;61064;51.654;5.476;2022-07-01T00:05:17;34.33;;;18.17;;
72920;SDS011;61064;51.654;5.476;2022-07-01T00:07:43;30.23;;;16.80;;
72920;SDS011;61064;51.654;5.476;2022-07-01T00:10:08;35.73;;;18.77;;
72920;SDS011;61064;51.654;5.476;2022-07-01T00:12:33;34.70;;;18.73;;
72920;SDS011;61064;51.654;5.476;2022-07-01T00:14:59;31.63;;;16.50;;
72920;SDS011;61064;51.654;5.476;2022-07-01T00:17:24;29.40;;;16.23;;
72920;SDS011;61064;51.654;5.476;2022-07-01T00:19:50;30.33;;;16.00;;
72920;SDS011;61064;51.654;5.476;2022-07-01T00:22:15;27.37;;;15.03;;
72920;SDS011;61064;51.654;5.476;2022-07-01T00:24:41;30.15;;;15.48;;
72920;SDS011;61064;51.654;5.476;2022-07-01T00:27:06;25.97;;;14.40;;
72920;SDS011;61064;51.654;5.476;2022-07-01T00:29:32;25.15;;;13.25;;
72920;SDS011;61064;51.654;5.476;2022-07-01T00:32:01;28.13;;;13.80;;
72920;SDS011;61064;51.654;5.476;2022-07-01T00:34:26;23.17;;;13.10;;
72920;SDS011;61064;51.654;5.476;2022-07-01T00:36:51;25.43;;;13.33;;
72920;SDS011;61064;51.654;5.476;2022-07-01T00:39:17;23.77;;;13.50;;
72920;SDS011;61064;51.654;5.476;2022-07-01T00:41:42;25.30;;;12.93;;
72920;SDS011;61064;51.654;5.476;2022-07-01T00:44:17;23.67;;;12.30;;
72920;SDS011;61064;51.654;5.476;2022-07-01T00:46:43;23.00;;;12.65;;
72920;SDS011;61064;51.654;5.476;2022-07-01T00:49:09;22.92;;;12.40;;
72920;SDS011;61064;51.654;5.476;2022-07-01T00:51:35;20.87;;;10.87;;
72920;SDS011;61064;51.654;5.476;2022-07-01T00:54:00;22.27;;;12.13;;
72920;SDS011;61064;51.654;5.476;2022-07-01T00:56:26;22.50;;;11.43;;
72920;SDS011;61064;51.654;5.476;2022-07-01T00:58:51;21.53;;;11.77;;
72920;SDS011;61064;51.654;5.476;2022-07-01T01:01:17;25.60;;;12.13;;
72920;SDS011;61064;51.654;5.476;2022-07-01T01:03:43;24.40;;;12.50;;
72920;SDS011;61064;51.654;5.476;2022-07-01T01:06:09;24.83;;;12.87;;
72920;SDS011;61064;51.654;5.476;2022-07-01T01:08:34;25.65;;;13.82;;
72920;SDS011;61064;51.654;5.476;2022-07-01T01:11:01;27.98;;;14.27;;
72920;SDS011;61064;51.654;5.476;2022-07-01T01:13:28;29.43;;;15.50;;
72920;SDS011;61064;51.654;5.476;2022-07-01T01:15:54;34.15;;;15.63;;
72920;SDS011;61064;51.654;5.476;2022-07-01T01:18:19;31.27;;;14.97;;
72920;SDS011;61064;51.654;5.476;2022-07-01T01:20:45;33.70;;;16.10;;
72920;SDS011;61064;51.654;5.476;2022-07-01T01:23:10;29.00;;;14.73;;
72920;SDS011;61064;51.654;5.476;2022-07-01T01:25:35;36.47;;;17.40;;
72920;SDS011;61064;51.654;5.476;2022-07-01T01:28:01;36.03;;;17.17;;
72920;SDS011;61064;51.654;5.476;2022-07-01T01:30:26;35.17;;;17.10;;
72920;SDS011;61064;51.654;5.476;2022-07-01T01:32:52;34.37;;;16.60;;
72920;SDS011;61064;51.654;5.476;2022-07-01T01:35:18;38.33;;;17.60;;
72920;SDS011;61064;51.654;5.476;2022-07-01T01:37:44;38.27;;;18.17;;
72920;SDS011;61064;51.654;5.476;2022-07-01T01:40:09;39.47;;;18.57;;
72920;SDS011;61064;51.654;5.476;2022-07-01T01:42:35;40.67;;;17.55;;
72920;SDS011;61064;51.654;5.476;2022-07-01T01:45:01;42.33;;;18.57;;
72920;SDS011;61064;51.654;5.476;2022-07-01T01:47:27;37.72;;;17.10;;
72920;SDS011;61064;51.654;5.476;2022-07-01T01:49:52;37.27;;;17.93;;
72920;SDS011;61064;51.654;5.476;2022-07-01T01:52:18;36.90;;;17.30;;
72920;SDS011;61064;51.654;5.476;2022-07-01T01:54:43;38.43;;;17.63;;
72920;SDS011;61064;51.654;5.476;2022-07-01T01:57:09;37.90;;;16.98;;
72920;SDS011;61064;51.654;5.476;2022-07-01T01:59:34;37.80;;;17.07;;
72920;SDS011;61064;51.654;5.476;2022-07-01T02:02:00;36.13;;;16.97;;
72920;SDS011;61064;51.654;5.476;2022-07-01T02:04:25;37.67;;;17.40;;
72920;SDS011;61064;51.654;5.476;2022-07-01T02:06:51;39.47;;;16.85;;
72920;SDS011;61064;51.654;5.476;2022-07-01T02:09:17;34.33;;;16.53;;
72920;SDS011;61064;51.654;5.476;2022-07-01T02:11:43;36.65;;;17.23;;
72920;SDS011;61064;51.654;5.476;2022-07-01T02:14:09;32.03;;;16.33;;
72920;SDS011;61064;51.654;5.476;2022-07-01T02:16:34;36.30;;;16.13;;
72920;SDS011;61064;51.654;5.476;2022-07-01T02:18:59;33.50;;;15.67;;
72920;SDS011;61064;51.654;5.476;2022-07-01T02:21:25;33.47;;;16.43;;
72920;SDS011;61064;51.654;5.476;2022-07-01T02:23:50;35.17;;;17.03;;
72920;SDS011;61064;51.654;5.476;2022-07-01T02:26:17;39.55;;;17.88;;
72920;SDS011;61064;51.654;5.476;2022-07-01T02:28:43;34.85;;;16.25;;
72920;SDS011;61064;51.654;5.476;2022-07-01T02:31:09;34.43;;;16.20;;
72920;SDS011;61064;51.654;5.476;2022-07-01T02:33:34;34.60;;;16.43;;
72920;SDS011;61064;51.654;5.476;2022-07-01T02:36:00;36.35;;;17.35;;
72920;SDS011;61064;51.654;5.476;2022-07-01T02:38:26;30.75;;;15.50;;
72920;SDS011;61064;51.654;5.476;2022-07-01T02:40:51;31.93;;;16.50;;
72920;SDS011;61064;51.654;5.476;2022-07-01T02:43:17;34.87;;;16.87;;
72920;SDS011;61064;51.654;5.476;2022-07-01T02:45:43;34.33;;;16.48;;
72920;SDS011;61064;51.654;5.476;2022-07-01T02:48:08;32.90;;;16.20;;
72920;SDS011;61064;51.654;5.476;2022-07-01T02:50:34;36.10;;;17.13;;
72920;SDS011;61064;51.654;5.476;2022-07-01T02:52:59;35.65;;;16.73;;
72920;SDS011;61064;51.654;5.476;2022-07-01T02:55:25;36.63;;;17.27;;
72920;SDS011;61064;51.654;5.476;2022-07-01T02:57:50;34.97;;;17.67;;
72920;SDS011;61064;51.654;5.476;2022-07-01T03:00:16;33.92;;;16.75;;
72920;SDS011;61064;51.654;5.476;2022-07-01T03:02:43;38.63;;;17.45;;
72920;SDS011;61064;51.654;5.476;2022-07-01T03:05:08;39.90;;;17.30;;
72920;SDS011;61064;51.654;5.476;2022-07-01T03:07:35;36.28;;;17.90;;
72920;SDS011;61064;51.654;5.476;2022-07-01T03:10:02;39.37;;;17.33;;
72920;SDS011;61064;51.654;5.476;2022-07-01T03:12:30;38.78;;;17.55;;
72920;SDS011;61064;51.654;5.476;2022-07-01T03:17:30;38.53;;;18.20;;
72920;SDS011;61064;51.654;5.476;2022-07-01T03:19:57;41.93;;;18.23;;
72920;SDS011;61064;51.654;5.476;2022-07-01T03:22:24;42.42;;;18.48;;
72920;SDS011;61064;51.654;5.476;2022-07-01T03:24:52;42.05;;;18.27;;
72920;SDS011;61064;51.654;5.476;2022-07-01T03:27:17;38.80;;;18.20;;
72920;SDS011;61064;51.654;5.476;2022-07-01T03:29:44;42.17;;;18.90;;
72920;SDS011;61064;51.654;5.476;2022-07-01T03:32:09;44.92;;;20.75;;
72920;SDS011;61064;51.654;5.476;2022-07-01T03:34:36;47.67;;;20.70;;
72920;SDS011;61064;51.654;5.476;2022-07-01T03:37:02;48.00;;;20.73;;
72920;SDS011;61064;51.654;5.476;2022-07-01T03:39:28;48.90;;;21.08;;
72920;SDS011;61064;51.654;5.476;2022-07-01T03:41:54;44.03;;;19.87;;
72920;SDS011;61064;51.654;5.476;2022-07-01T03:44:19;44.57;;;20.17;;
72920;SDS011;61064;51.654;5.476;2022-07-01T03:46:44;45.23;;;20.23;;
72920;SDS011;61064;51.654;5.476;2022-07-01T03:49:10;46.33;;;20.83;;
72920;SDS011;61064;51.654;5.476;2022-07-01T03:51:36;44.57;;;20.23;;
72920;SDS011;61064;51.654;5.476;2022-07-01T03:54:01;45.25;;;20.92;;
72920;SDS011;61064;51.654;5.476;2022-07-01T03:56:45;42.42;;;19.88;;
72920;SDS011;61064;51.654;5.476;2022-07-01T03:59:11;40.37;;;18.53;;
72920;SDS011;61064;51.654;5.476;2022-07-01T04:01:36;36.07;;;17.27;;
72920;SDS011;61064;51.654;5.476;2022-07-01T04:04:01;35.73;;;17.93;;
72920;SDS011;61064;51.654;5.476;2022-07-01T04:06:27;38.90;;;19.03;;
72920;SDS011;61064;51.654;5.476;2022-07-01T04:08:52;39.67;;;18.43;;
72920;SDS011;61064;51.654;5.476;2022-07-01T04:11:18;35.60;;;17.25;;
72920;SDS011;61064;51.654;5.476;2022-07-01T04:13:44;34.43;;;17.03;;
72920;SDS011;61064;51.654;5.476;2022-07-01T04:16:15;33.95;;;16.65;;
72920;SDS011;61064;51.654;5.476;2022-07-01T04:18:45;34.90;;;17.45;;
72920;SDS011;61064;51.654;5.476;2022-07-01T04:21:11;33.60;;;16.55;;
72920;SDS011;61064;51.654;5.476;2022-07-01T04:23:55;34.28;;;16.30;;
72920;SDS011;61064;51.654;5.476;2022-07-01T04:26:24;34.07;;;16.17;;
72920;SDS011;61064;51.654;5.476;2022-07-01T04:28:50;35.45;;;17.30;;
72920;SDS011;61064;51.654;5.476;2022-07-01T04:31:16;34.78;;;16.52;;
72920;SDS011;61064;51.654;5.476;2022-07-01T04:33:42;34.53;;;17.00;;
72920;SDS011;61064;51.654;5.476;2022-07-01T04:36:07;34.07;;;16.57;;
72920;SDS011;61064;51.654;5.476;2022-07-01T04:38:32;33.63;;;15.90;;
72920;SDS011;61064;51.654;5.476;2022-07-01T04:40:58;38.40;;;17.03;;
72920;SDS011;61064;51.654;5.476;2022-07-01T04:43:42;33.97;;;16.35;;
72920;SDS011;61064;51.654;5.476;2022-07-01T04:46:07;37.20;;;17.20;;
72920;SDS011;61064;51.654;5.476;2022-07-01T04:48:33;36.47;;;16.83;;
72920;SDS011;61064;51.654;5.476;2022-07-01T04:50:58;35.47;;;16.70;;
72920;SDS011;61064;51.654;5.476;2022-07-01T04:53:23;36.40;;;16.73;;
72920;SDS011;61064;51.654;5.476;2022-07-01T04:55:49;40.15;;;17.55;;
72920;SDS011;61064;51.654;5.476;2022-07-01T04:58:14;40.57;;;18.40;;
72920;SDS011;61064;51.654;5.476;2022-07-01T05:00:39;39.43;;;17.20;;
72920;SDS011;61064;51.654;5.476;2022-07-01T05:03:05;37.97;;;18.10;;
72920;SDS011;61064;51.654;5.476;2022-07-01T05:05:30;43.00;;;17.30;;
72920;SDS011;61064;51.654;5.476;2022-07-01T05:07:55;36.23;;;16.80;;
72920;SDS011;61064;51.654;5.476;2022-07-01T05:10:21;33.87;;;16.93;;
72920;SDS011;61064;51.654;5.476;2022-07-01T05:12:46;36.60;;;17.10;;
72920;SDS011;61064;51.654;5.476;2022-07-01T05:15:11;35.67;;;17.13;;
72920;SDS011;61064;51.654;5.476;2022-07-01T05:17:37;35.23;;;17.37;;
72920;SDS011;61064;51.654;5.476;2022-07-01T05:20:21;36.55;;;17.00;;
72920;SDS011;61064;51.654;5.476;2022-07-01T05:23:04;35.83;;;16.97;;
72920;SDS011;61064;51.654;5.476;2022-07-01T05:25:30;34.53;;;15.80;;
72920;SDS011;61064;51.654;5.476;2022-07-01T05:27:55;35.00;;;16.58;;
72920;SDS011;61064;51.654;5.476;2022-07-01T05:30:21;31.97;;;15.40;;
72920;SDS011;61064;51.654;5.476;2022-07-01T05:32:47;29.50;;;15.30;;
72920;SDS011;61064;51.654;5.476;2022-07-01T05:35:12;32.57;;;15.27;;
72920;SDS011;61064;51.654;5.476;2022-07-01T05:37:39;32.15;;;15.88;;
72920;SDS011;61064;51.654;5.476;2022-07-01T05:40:04;29.73;;;14.33;;
72920;SDS011;61064;51.654;5.476;2022-07-01T05:42:30;29.23;;;14.32;;
72920;SDS011;61064;51.654;5.476;2022-07-01T05:44:56;31.53;;;14.17;;
72920;SDS011;61064;51.654;5.476;2022-07-01T05:47:21;28.57;;;14.53;;
72920;SDS011;61064;51.654;5.476;2022-07-01T05:49:46;28.73;;;14.20;;
72920;SDS011;61064;51.654;5.476;2022-07-01T05:52:12;31.03;;;15.03;;
72920;SDS011;61064;51.654;5.476;2022-07-01T05:54:37;29.00;;;14.53;;
72920;SDS011;61064;51.654;5.476;2022-07-01T05:57:03;27.00;;;14.25;;
72920;SDS011;61064;51.654;5.476;2022-07-01T05:59:28;29.67;;;14.30;;
72920;SDS011;61064;51.654;5.476;2022-07-01T06:01:54;29.63;;;14.03;;
72920;SDS011;61064;51.654;5.476;2022-07-01T06:04:19;26.17;;;13.43;;
72920;SDS011;61064;51.654;5.476;2022-07-01T06:06:44;28.07;;;13.97;;
72920;SDS011;61064;51.654;5.476;2022-07-01T06:09:10;29.07;;;13.63;;
72920;SDS011;61064;51.654;5.476;2022-07-01T06:11:35;23.60;;;13.10;;
72920;SDS011;61064;51.654;5.476;2022-07-01T06:14:00;25.90;;;12.67;;
72920;SDS011;61064;51.654;5.476;2022-07-01T06:16:26;22.65;;;12.27;;
72920;SDS011;61064;51.654;5.476;2022-07-01T06:18:51;26.43;;;12.13;;
72920;SDS011;61064;51.654;5.476;2022-07-01T06:21:16;23.10;;;11.83;;
72920;SDS011;61064;51.654;5.476;2022-07-01T06:23:42;22.30;;;11.47;;
72920;SDS011;61064;51.654;5.476;2022-07-01T06:26:07;23.73;;;11.17;;
72920;SDS011;61064;51.654;5.476;2022-07-01T06:28:33;23.33;;;11.70;;
72920;SDS011;61064;51.654;5.476;2022-07-01T06:30:58;21.90;;;11.07;;
72920;SDS011;61064;51.654;5.476;2022-07-01T06:33:23;22.23;;;11.30;;
72920;SDS011;61064;51.654;5.476;2022-07-01T06:35:50;21.88;;;10.88;;
72920;SDS011;61064;51.654;5.476;2022-07-01T06:38:16;20.47;;;11.13;;
72920;SDS011;61064;51.654;5.476;2022-07-01T06:40:41;21.02;;;10.48;;
72920;SDS011;61064;51.654;5.476;2022-07-01T06:43:06;22.67;;;10.73;;
72920;SDS011;61064;51.654;5.476;2022-07-01T06:45:32;22.60;;;10.00;;
72920;SDS011;61064;51.654;5.476;2022-07-01T06:47:57;19.37;;;10.37;;
72920;SDS011;61064;51.654;5.476;2022-07-01T06:50:22;21.70;;;10.07;;
72920;SDS011;61064;51.654;5.476;2022-07-01T06:52:48;19.92;;;10.18;;
72920;SDS011;61064;51.654;5.476;2022-07-01T06:55:13;18.33;;;9.37;;
72920;SDS011;61064;51.654;5.476;2022-07-01T06:57:39;16.93;;;8.47;;
72920;SDS011;61064;51.654;5.476;2022-07-01T07:00:04;16.10;;;8.77;;
72920;SDS011;61064;51.654;5.476;2022-07-01T07:02:30;17.42;;;8.57;;
72920;SDS011;61064;51.654;5.476;2022-07-01T07:04:56;16.13;;;8.60;;
72920;SDS011;61064;51.654;5.476;2022-07-01T07:07:23;19.38;;;9.00;;
72920;SDS011;61064;51.654;5.476;2022-07-01T07:09:49;15.02;;;7.90;;
72920;SDS011;61064;51.654;5.476;2022-07-01T07:12:15;17.30;;;7.63;;
72920;SDS011;61064;51.654;5.476;2022-07-01T07:14:40;18.20;;;8.50;;
72920;SDS011;61064;51.654;5.476;2022-07-01T07:17:05;16.60;;;7.33;;
72920;SDS011;61064;51.654;5.476;2022-07-01T07:19:31;14.47;;;6.93;;
72920;SDS011;61064;51.654;5.476;2022-07-01T07:21:56;14.07;;;6.40;;
72920;SDS011;61064;51.654;5.476;2022-07-01T07:24:22;14.70;;;6.33;;
72920;SDS011;61064;51.654;5.476;2022-07-01T07:26:47;13.90;;;6.40;;
72920;SDS011;61064;51.654;5.476;2022-07-01T07:29:13;14.83;;;6.27;;
72920;SDS011;61064;51.654;5.476;2022-07-01T07:31:39;13.90;;;5.80;;
72920;SDS011;61064;51.654;5.476;2022-07-01T07:34:04;13.15;;;5.82;;
72920;SDS011;61064;51.654;5.476;2022-07-01T07:36:29;11.03;;;5.73;;
72920;SDS011;61064;51.654;5.476;2022-07-01T07:38:56;12.52;;;5.15;;
72920;SDS011;61064;51.654;5.476;2022-07-01T07:41:22;11.50;;;4.83;;
72920;SDS011;61064;51.654;5.476;2022-07-01T07:43:47;11.37;;;4.57;;
72920;SDS011;61064;51.654;5.476;2022-07-01T07:46:13;12.27;;;4.80;;
72920;SDS011;61064;51.654;5.476;2022-07-01T07:48:39;10.98;;;4.75;;
72920;SDS011;61064;51.654;5.476;2022-07-01T07:51:06;9.43;;;4.33;;
72920;SDS011;61064;51.654;5.476;2022-07-01T07:53:32;11.98;;;4.20;;
72920;SDS011;61064;51.654;5.476;2022-07-01T07:55:57;9.83;;;3.87;;
72920;SDS011;61064;51.654;5.476;2022-07-01T07:58:23;10.67;;;3.90;;
72920;SDS011;61064;51.654;5.476;2022-07-01T08:00:48;10.77;;;3.40;;
72920;SDS011;61064;51.654;5.476;2022-07-01T08:03:14;13.07;;;4.10;;
72920;SDS011;61064;51.654;5.476;2022-07-01T08:05:39;9.73;;;3.37;;
72920;SDS011;61064;51.654;5.476;2022-07-01T08:08:04;10.17;;;3.00;;
72920;SDS011;61064;51.654;5.476;2022-07-01T08:10:30;9.70;;;2.83;;
72920;SDS011;61064;51.654;5.476;2022-07-01T08:12:55;10.80;;;2.37;;
72920;SDS011;61064;51.654;5.476;2022-07-01T08:15:22;7.82;;;2.88;;
72920;SDS011;61064;51.654;5.476;2022-07-01T08:17:48;8.63;;;3.00;;
72920;SDS011;61064;51.654;5.476;2022-07-01T08:20:13;9.40;;;2.80;;
72920;SDS011;61064;51.654;5.476;2022-07-01T08:22:39;8.73;;;2.80;;
72920;SDS011;61064;51.654;5.476;2022-07-01T08:25:04;11.13;;;2.60;;
72920;SDS011;61064;51.654;5.476;2022-07-01T08:27:31;8.10;;;2.60;;
72920;SDS011;61064;51.654;5.476;2022-07-01T08:29:56;12.23;;;2.47;;
72920;SDS011;61064;51.654;5.476;2022-07-01T08:32:22;8.18;;;2.20;;
72920;SDS011;61064;51.654;5.476;2022-07-01T08:34:50;9.83;;;2.57;;
72920;SDS011;61064;51.654;5.476;2022-07-01T08:37:16;8.02;;;2.10;;
72920;SDS011;61064;51.654;5.476;2022-07-01T08:39:41;6.10;;;1.70;;
72920;SDS011;61064;51.654;5.476;2022-07-01T08:42:07;7.47;;;1.90;;
72920;SDS011;61064;51.654;5.476;2022-07-01T08:44:32;8.38;;;2.00;;
72920;SDS011;61064;51.654;5.476;2022-07-01T08:46:58;5.90;;;1.80;;
72920;SDS011;61064;51.654;5.476;2022-07-01T08:49:24;8.13;;;2.10;;
72920;SDS011;61064;51.654;5.476;2022-07-01T08:51:49;7.67;;;1.83;;
72920;SDS011;61064;51.654;5.476;2022-07-01T08:54:15;7.67;;;1.70;;
72920;SDS011;61064;51.654;5.476;2022-07-01T08:56:40;6.07;;;1.60;;
72920;SDS011;61064;51.654;5.476;2022-07-01T08:59:23;5.45;;;1.40;;
72920;SDS011;61064;51.654;5.476;2022-07-01T09:01:57;7.57;;;1.50;;
72920;SDS011;61064;51.654;5.476;2022-07-01T09:04:24;7.50;;;1.58;;
72920;SDS011;61064;51.654;5.476;2022-07-01T09:06:50;5.13;;;1.50;;
72920;SDS011;61064;51.654;5.476;2022-07-01T09:09:17;6.10;;;1.40;;
72920;SDS011;61064;51.654;5.476;2022-07-01T09:11:52;8.18;;;1.95;;
72920;SDS011;61064;51.654;5.476;2022-07-01T09:14:19;5.97;;;1.48;;
72920;SDS011;61064;51.654;5.476;2022-07-01T09:16:53;6.75;;;1.23;;
72920;SDS011;61064;51.654;5.476;2022-07-01T09:19:22;7.27;;;1.67;;
72920;SDS011;61064;51.654;5.476;2022-07-01T09:21:49;8.05;;;1.70;;
72920;SDS011;61064;51.654;5.476;2022-07-01T09:24:28;8.20;;;1.40;;
72920;SDS011;61064;51.654;5.476;2022-07-01T09:26:58;6.18;;;1.20;;
72920;SDS011;61064;51.654;5.476;2022-07-01T09:29:32;4.53;;;1.13;;
72920;SDS011;61064;51.654;5.476;2022-07-01T09:32:03;4.95;;;1.10;;
72920;SDS011;61064;51.654;5.476;2022-07-01T09:34:41;7.53;;;1.40;;
72920;SDS011;61064;51.654;5.476;2022-07-01T09:37:11;6.10;;;1.20;;
72920;SDS011;61064;51.654;5.476;2022-07-01T09:39:48;8.32;;;1.75;;
72920;SDS011;61064;51.654;5.476;2022-07-01T09:42:15;6.07;;;1.43;;
72920;SDS011;61064;51.654;5.476;2022-07-01T09:44:51;6.95;;;1.60;;
72920;SDS011;61064;51.654;5.476;2022-07-01T09:47:18;8.50;;;1.50;;
72920;SDS011;61064;51.654;5.476;2022-07-01T09:49:47;7.82;;;1.40;;
72920;SDS011;61064;51.654;5.476;2022-07-01T09:52:13;6.47;;;1.60;;
72920;SDS011;61064;51.654;5.476;2022-07-01T09:54:38;6.30;;;1.50;;
72920;SDS011;61064;51.654;5.476;2022-07-01T09:57:04;6.47;;;1.40;;
72920;SDS011;61064;51.654;5.476;2022-07-01T09:59:30;7.07;;;1.40;;
72920;SDS011;61064;51.654;5.476;2022-07-01T10:01:55;7.23;;;1.30;;
72920;SDS011;61064;51.654;5.476;2022-07-01T10:04:21;6.43;;;1.58;;
72920;SDS011;61064;51.654;5.476;2022-07-01T10:06:58;5.20;;;1.43;;
72920;SDS011;61064;51.654;5.476;2022-07-01T10:12:40;6.95;;;1.27;;
72920;SDS011;61064;51.654;5.476;2022-07-01T10:15:09;6.25;;;1.33;;
72920;SDS011;61064;51.654;5.476;2022-07-01T10:17:37;5.10;;;1.30;;
72920;SDS011;61064;51.654;5.476;2022-07-01T10:20:14;8.50;;;1.50;;
72920;SDS011;61064;51.654;5.476;2022-07-01T10:22:42;6.75;;;1.60;;
72920;SDS011;61064;51.654;5.476;2022-07-01T10:36:09;4.60;;;1.00;;
72920;SDS011;61064;51.654;5.476;2022-07-01T10:41:25;5.50;;;1.15;;
72920;SDS011;61064;51.654;5.476;2022-07-01T10:43:58;5.13;;;1.07;;
72920;SDS011;61064;51.654;5.476;2022-07-01T10:49:07;6.28;;;1.25;;
72920;SDS011;61064;51.654;5.476;2022-07-01T10:54:08;5.70;;;1.10;;
72920;SDS011;61064;51.654;5.476;2022-07-01T10:56:39;6.70;;;2.27;;
72920;SDS011;61064;51.654;5.476;2022-07-01T10:59:05;4.85;;;0.80;;
72920;SDS011;61064;51.654;5.476;2022-07-01T11:01:31;5.93;;;1.07;;
72920;SDS011;61064;51.654;5.476;2022-07-01T11:03:57;4.88;;;0.80;;
72920;SDS011;61064;51.654;5.476;2022-07-01T11:06:24;7.57;;;0.97;;
72920;SDS011;61064;51.654;5.476;2022-07-01T11:08:49;6.38;;;1.20;;
72920;SDS011;61064;51.654;5.476;2022-07-01T11:11:15;6.03;;;1.00;;
72920;SDS011;61064;51.654;5.476;2022-07-01T11:13:40;7.33;;;1.10;;
72920;SDS011;61064;51.654;5.476;2022-07-01T11:16:07;4.90;;;1.00;;
72920;SDS011;61064;51.654;5.476;2022-07-01T11:18:33;4.47;;;1.00;;
72920;SDS011;61064;51.654;5.476;2022-07-01T11:21:06;3.97;;;0.80;;
72920;SDS011;61064;51.654;5.476;2022-07-01T11:23:33;5.95;;;0.90;;
72920;SDS011;61064;51.654;5.476;2022-07-01T11:26:00;5.60;;;1.00;;
72920;SDS011;61064;51.654;5.476;2022-07-01T11:28:25;4.30;;;1.00;;
72920;SDS011;61064;51.654;5.476;2022-07-01T11:31:00;3.45;;;0.88;;
72920;SDS011;61064;51.654;5.476;2022-07-01T11:33:26;4.17;;;0.90;;
72920;SDS011;61064;51.654;5.476;2022-07-01T11:35:52;5.03;;;1.10;;
72920;SDS011;61064;51.654;5.476;2022-07-01T11:38:36;6.50;;;1.10;;
72920;SDS011;61064;51.654;5.476;2022-07-01T11:41:21;5.80;;;1.00;;
72920;SDS011;61064;51.654;5.476;2022-07-01T11:43:50;4.43;;;0.88;;
72920;SDS011;61064;51.654;5.476;2022-07-01T11:46:16;4.87;;;0.97;;
72920;SDS011;61064;51.654;5.476;2022-07-01T11:48:46;5.30;;;1.10;;
72920;SDS011;61064;51.654;5.476;2022-07-01T11:51:20;6.60;;;1.10;;
72920;SDS011;61064;51.654;5.476;2022-07-01T11:53:48;5.00;;;0.90;;
72920;SDS011;61064;51.654;5.476;2022-07-01T11:56:17;5.00;;;0.90;;
72920;SDS011;61064;51.654;5.476;2022-07-01T11:58:53;5.22;;;0.80;;
72920;SDS011;61064;51.654;5.476;2022-07-01T12:01:26;4.17;;;0.70;;
72920;SDS011;61064;51.654;5.476;2022-07-01T12:03:56;5.68;;;1.05;;
72920;SDS011;61064;51.654;5.476;2022-07-01T12:06:24;5.75;;;0.80;;
72920;SDS011;61064;51.654;5.476;2022-07-01T12:08:51;6.53;;;0.83;;
72920;SDS011;61064;51.654;5.476;2022-07-01T12:11:18;6.03;;;0.80;;
72920;SDS011;61064;51.654;5.476;2022-07-01T12:13:46;5.30;;;1.00;;
72920;SDS011;61064;51.654;5.476;2022-07-01T12:16:12;5.32;;;0.80;;
72920;SDS011;61064;51.654;5.476;2022-07-01T12:18:38;4.75;;;0.90;;
72920;SDS011;61064;51.654;5.476;2022-07-01T12:21:04;5.67;;;0.70;;
72920;SDS011;61064;51.654;5.476;2022-07-01T12:23:30;5.97;;;0.80;;
72920;SDS011;61064;51.654;5.476;2022-07-01T12:25:57;7.35;;;0.90;;
72920;SDS011;61064;51.654;5.476;2022-07-01T12:28:27;5.32;;;0.80;;
72920;SDS011;61064;51.654;5.476;2022-07-01T12:31:03;7.13;;;0.93;;
72920;SDS011;61064;51.654;5.476;2022-07-01T12:33:31;5.05;;;0.70;;
72920;SDS011;61064;51.654;5.476;2022-07-01T12:35:58;4.22;;;0.60;;
72920;SDS011;61064;51.654;5.476;2022-07-01T12:38:26;4.60;;;0.73;;
72920;SDS011;61064;51.654;5.476;2022-07-01T12:40:52;4.93;;;0.50;;
72920;SDS011;61064;51.654;5.476;2022-07-01T12:43:24;3.97;;;1.00;;
72920;SDS011;61064;51.654;5.476;2022-07-01T12:45:55;4.50;;;0.90;;
72920;SDS011;61064;51.654;5.476;2022-07-01T12:48:22;4.32;;;0.65;;
72920;SDS011;61064;51.654;5.476;2022-07-01T12:50:47;4.50;;;0.70;;
72920;SDS011;61064;51.654;5.476;2022-07-01T12:53:17;4.00;;;0.60;;
72920;SDS011;61064;51.654;5.476;2022-07-01T12:55:45;5.50;;;0.63;;
72920;SDS011;61064;51.654;5.476;2022-07-01T12:58:16;4.10;;;0.70;;
72920;SDS011;61064;51.654;5.476;2022-07-01T13:00:51;4.40;;;0.60;;
72920;SDS011;61064;51.654;5.476;2022-07-01T13:03:18;4.63;;;0.68;;
72920;SDS011;61064;51.654;5.476;2022-07-01T13:05:45;5.30;;;0.82;;
72920;SDS011;61064;51.654;5.476;2022-07-01T13:08:11;5.70;;;0.70;;
72920;SDS011;61064;51.654;5.476;2022-07-01T13:10:39;4.33;;;0.70;;
72920;SDS011;61064;51.654;5.476;2022-07-01T13:13:07;3.85;;;0.70;;
72920;SDS011;61064;51.654;5.476;2022-07-01T13:15:33;3.00;;;0.65;;
72920;SDS011;61064;51.654;5.476;2022-07-01T13:17:59;5.47;;;0.77;;
72920;SDS011;61064;51.654;5.476;2022-07-01T13:20:25;5.55;;;0.80;;
72920;SDS011;61064;51.654;5.476;2022-07-01T13:22:51;5.50;;;0.80;;
72920;SDS011;61064;51.654;5.476;2022-07-01T13:25:16;4.82;;;0.80;;
72920;SDS011;61064;51.654;5.476;2022-07-01T13:27:43;4.67;;;0.80;;
72920;SDS011;61064;51.654;5.476;2022-07-01T13:30:08;3.85;;;0.60;;
72920;SDS011;61064;51.654;5.476;2022-07-01T13:32:35;4.70;;;0.60;;
72920;SDS011;61064;51.654;5.476;2022-07-01T13:35:01;7.32;;;1.00;;
72920;SDS011;61064;51.654;5.476;2022-07-01T13:37:28;4.38;;;0.73;;
72920;SDS011;61064;51.654;5.476;2022-07-01T13:39:53;5.60;;;0.73;;
72920;SDS011;61064;51.654;5.476;2022-07-01T13:42:19;5.27;;;0.90;;
72920;SDS011;61064;51.654;5.476;2022-07-01T13:44:44;6.17;;;1.00;;
72920;SDS011;61064;51.654;5.476;2022-07-01T13:47:10;4.95;;;0.80;;
72920;SDS011;61064;51.654;5.476;2022-07-01T13:49:38;6.90;;;1.00;;
72920;SDS011;61064;51.654;5.476;2022-07-01T13:52:03;4.18;;;0.70;;
72920;SDS011;61064;51.654;5.476;2022-07-01T13:54:29;6.10;;;0.90;;
72920;SDS011;61064;51.654;5.476;2022-07-01T13:56:54;6.57;;;0.73;;
72920;SDS011;61064;51.654;5.476;2022-07-01T13:59:19;7.60;;;0.90;;
72920;SDS011;61064;51.654;5.476;2022-07-01T14:01:45;4.37;;;0.70;;
72920;SDS011;61064;51.654;5.476;2022-07-01T14:04:10;3.50;;;0.70;;
72920;SDS011;61064;51.654;5.476;2022-07-01T14:06:36;3.37;;;0.70;;
72920;SDS011;61064;51.654;5.476;2022-07-01T14:09:02;5.07;;;0.60;;
72920;SDS011;61064;51.654;5.476;2022-07-01T14:11:28;4.80;;;0.80;;
72920;SDS011;61064;51.654;5.476;2022-07-01T14:13:53;5.53;;;0.60;;
72920;SDS011;61064;51.654;5.476;2022-07-01T14:16:19;3.63;;;0.70;;
72920;SDS011;61064;51.654;5.476;2022-07-01T14:18:44;4.17;;;0.70;;
72920;SDS011;61064;51.654;5.476;2022-07-01T14:21:09;3.47;;;0.60;;
72920;SDS011;61064;51.654;5.476;2022-07-01T14:23:35;5.83;;;0.80;;
72920;SDS011;61064;51.654;5.476;2022-07-01T14:26:01;5.55;;;0.68;;
72920;SDS011;61064;51.654;5.476;2022-07-01T14:28:26;3.27;;;0.50;;
72920;SDS011;61064;51.654;5.476;2022-07-01T14:30:52;2.53;;;0.43;;
72920;SDS011;61064;51.654;5.476;2022-07-01T14:33:20;3.47;;;0.60;;
72920;SDS011;61064;51.654;5.476;2022-07-01T14:35:46;4.43;;;0.75;;
72920;SDS011;61064;51.654;5.476;2022-07-01T14:38:12;5.57;;;0.70;;
72920;SDS011;61064;51.654;5.476;2022-07-01T14:40:39;5.43;;;0.70;;
72920;SDS011;61064;51.654;5.476;2022-07-01T14:43:05;6.78;;;0.60;;
72920;SDS011;61064;51.654;5.476;2022-07-01T14:45:30;4.30;;;0.60;;
72920;SDS011;61064;51.654;5.476;2022-07-01T14:47:55;5.97;;;1.10;;
72920;SDS011;61064;51.654;5.476;2022-07-01T14:50:21;4.60;;;0.80;;
72920;SDS011;61064;51.654;5.476;2022-07-01T14:52:47;8.48;;;1.05;;
72920;SDS011;61064;51.654;5.476;2022-07-01T14:55:12;5.65;;;1.20;;